• Join FlightAware (Why Join?)
  • Login
  • US Flag 
04:23PM EDT


 

Airport Tracker/Info


-or-


 

Live Flight TrackerFlight Track Log ✈ TMC420 ✈ 12-May-2013 ✈ KPTK - KEKM

Flight Track Log - Related Links

Times and Time Zones

All times are in EDT time to prevent confusion due to time zone crossing. See the TMC420 flight status page for this flight to view local times or setup timezone preferences in your user account.

Time Position Orientation Groundspeed Altitude Reporting Facility
EDT Latitude Longitude Course Direction KTS MPH feet Rate Location/Type
06:08PM 42.6494 -83.5361 259° West 204 235 5,000  Level Cleveland Center
06:09PM 42.6061 -83.5989 227° Southwest 250 288 5,900 2,340 Climbing Cleveland Center
06:10PM 42.5689 -83.6733 236° Southwest 242 278 9,800 3,360 Climbing Cleveland Center
06:11PM 42.5206 -83.7556 231° Southwest 279 321 12,900 1,500 Climbing Cleveland Center
06:12PM 42.4664 -83.8372 228° Southwest 293 337 13,000 -180 Climbing Cleveland Center
06:13PM 42.4242 -83.9222 236° Southwest 288 331 12,600 -540 Descending Cleveland Center
06:14PM 42.3758 -84.0039 231° Southwest 288 331 12,000 -300 Descending Cleveland Center
06:15PM 42.3275 -84.0856 231° Southwest 288 331 12,000 -60 Level Cleveland Center
06:16PM 42.2792 -84.1672 231° Southwest 288 331 11,900 -60 Descending Cleveland Center
06:17PM 42.2594 -84.2644 255° West 280 322 11,900  Level Cleveland Center
06:18PM 42.2564 -84.3622 268° West 264 304 11,900  Level Cleveland Center
06:19PM 42.2572 -84.4633 271° West 264 304 11,900  Level Cleveland Center
06:22PM 42.2461 -84.6683 266° West 264 304 12,000  Climbing Chicago Center
06:23PM 42.2394 -84.7644 265° West 260 299 12,000  Level Chicago Center
06:24PM 42.2403 -84.8600 271° West 256 295 12,000  Level Chicago Center
06:25PM 42.2403 -84.9700 270° West 248 285 12,000  Level Chicago Center
06:26PM 42.2400 -85.0586 270° West 240 276 12,000  Level Chicago Center
06:27PM 42.2397 -85.1400 270° West 226 260 12,000 -60 Level Chicago Center
06:28PM 42.2392 -85.2194 269° West 216 249 11,900 -300 Descending Chicago Center
06:29PM 42.2381 -85.3000 269° West 215 247 11,400 -480 Descending Chicago Center
06:30PM 42.2267 -85.3853 260° West 231 266 11,000 -780 Descending Chicago Center
06:31PM 42.2128 -85.4894 260° West 236 272 9,800 -1,020 Descending Chicago Center
06:32PM 42.2056 -85.5611 262° West 225 259 8,900 -840 Descending Chicago Center
06:33PM 42.1981 -85.6319 262° West 203 234 8,100 -540 Descending Chicago Center
06:34PM 42.1314 -85.6814 209° Southwest 231 266 7,900 -660 Descending Chicago Center
06:35PM 42.0747 -85.7200 207° Southwest 231 266 6,800 -900 Descending Chicago Center
06:36PM 42.0189 -85.7550 205° Southwest 225 259 6,100 -840 Descending Chicago Center
06:37PM 41.9653 -85.7872 204° Southwest 216 249 5,100 -960 Descending Chicago Center
06:38PM 41.9111 -85.8269 209° Southwest 220 253 4,200 -1,020 Descending Chicago Center
06:39PM 41.8558 -85.8694 210° Southwest 227 261 3,100 -780 Descending Chicago Center
06:40PM 41.7911 -85.9114 206° Southwest 223 257 2,600 -420 Descending Chicago Center
06:41PM 41.7431 -85.9306 197° South 202 232 2,300 -540 Descending Chicago Center
06:42PM 41.7206 -85.9664 230° Southwest 164 189 1,500 -540 Descending Chicago Center
06:43PM 41.7214 -86.0083 272° West 154 177 1,300 -240 Descending Chicago Center